sensor_id;sensor_type;location;lat;lon;timestamp;P1;durP1;ratioP1;P2;durP2;ratioP2
70487;SDS011;57976;48.174;16.370;2024-02-26T00:01:47;6.10;;;2.00;;
70487;SDS011;57976;48.174;16.370;2024-02-26T00:03:54;6.70;;;2.30;;
70487;SDS011;57976;48.174;16.370;2024-02-26T00:05:58;6.20;;;2.00;;
70487;SDS011;57976;48.174;16.370;2024-02-26T00:08:03;7.30;;;2.20;;
70487;SDS011;57976;48.174;16.370;2024-02-26T00:10:09;6.80;;;2.20;;
70487;SDS011;57976;48.174;16.370;2024-02-26T00:12:14;7.60;;;2.00;;
70487;SDS011;57976;48.174;16.370;2024-02-26T00:14:19;7.00;;;2.30;;
70487;SDS011;57976;48.174;16.370;2024-02-26T00:16:23;8.30;;;2.30;;
70487;SDS011;57976;48.174;16.370;2024-02-26T00:18:28;6.80;;;2.20;;
70487;SDS011;57976;48.174;16.370;2024-02-26T00:20:33;6.80;;;2.10;;
70487;SDS011;57976;48.174;16.370;2024-02-26T00:22:38;6.90;;;2.30;;
70487;SDS011;57976;48.174;16.370;2024-02-26T00:24:42;6.50;;;2.10;;
70487;SDS011;57976;48.174;16.370;2024-02-26T00:26:51;5.80;;;2.10;;
70487;SDS011;57976;48.174;16.370;2024-02-26T00:28:56;6.30;;;2.00;;
70487;SDS011;57976;48.174;16.370;2024-02-26T00:31:01;5.70;;;2.10;;
70487;SDS011;57976;48.174;16.370;2024-02-26T00:33:06;7.90;;;2.10;;
70487;SDS011;57976;48.174;16.370;2024-02-26T00:35:11;6.90;;;2.20;;
70487;SDS011;57976;48.174;16.370;2024-02-26T00:37:15;6.40;;;2.30;;
70487;SDS011;57976;48.174;16.370;2024-02-26T00:39:20;7.00;;;2.40;;
70487;SDS011;57976;48.174;16.370;2024-02-26T00:41:25;7.30;;;2.30;;
70487;SDS011;57976;48.174;16.370;2024-02-26T00:43:29;7.70;;;2.40;;
70487;SDS011;57976;48.174;16.370;2024-02-26T00:45:34;8.60;;;2.60;;
70487;SDS011;57976;48.174;16.370;2024-02-26T00:47:39;7.40;;;2.50;;
70487;SDS011;57976;48.174;16.370;2024-02-26T00:49:44;7.60;;;2.40;;
70487;SDS011;57976;48.174;16.370;2024-02-26T00:51:49;8.10;;;2.50;;
70487;SDS011;57976;48.174;16.370;2024-02-26T00:53:54;6.60;;;2.30;;
70487;SDS011;57976;48.174;16.370;2024-02-26T00:55:59;8.60;;;2.70;;
70487;SDS011;57976;48.174;16.370;2024-02-26T00:58:03;6.70;;;2.50;;
70487;SDS011;57976;48.174;16.370;2024-02-26T01:00:08;7.40;;;2.40;;
70487;SDS011;57976;48.174;16.370;2024-02-26T01:02:14;9.00;;;2.40;;
70487;SDS011;57976;48.174;16.370;2024-02-26T01:04:19;7.00;;;2.70;;
70487;SDS011;57976;48.174;16.370;2024-02-26T01:06:24;7.50;;;2.60;;
70487;SDS011;57976;48.174;16.370;2024-02-26T01:08:28;7.00;;;2.50;;
70487;SDS011;57976;48.174;16.370;2024-02-26T01:10:33;7.00;;;2.30;;
70487;SDS011;57976;48.174;16.370;2024-02-26T01:12:38;7.60;;;2.60;;
70487;SDS011;57976;48.174;16.370;2024-02-26T01:14:42;6.70;;;2.20;;
70487;SDS011;57976;48.174;16.370;2024-02-26T01:16:47;7.10;;;2.60;;
70487;SDS011;57976;48.174;16.370;2024-02-26T01:18:52;8.10;;;2.80;;
70487;SDS011;57976;48.174;16.370;2024-02-26T01:20:56;7.20;;;2.80;;
70487;SDS011;57976;48.174;16.370;2024-02-26T01:23:02;8.30;;;2.80;;
70487;SDS011;57976;48.174;16.370;2024-02-26T01:25:07;8.10;;;2.40;;
70487;SDS011;57976;48.174;16.370;2024-02-26T01:27:12;8.40;;;2.90;;
70487;SDS011;57976;48.174;16.370;2024-02-26T01:29:17;9.40;;;2.60;;
70487;SDS011;57976;48.174;16.370;2024-02-26T01:31:21;7.80;;;2.70;;
70487;SDS011;57976;48.174;16.370;2024-02-26T01:33:26;7.40;;;2.50;;
70487;SDS011;57976;48.174;16.370;2024-02-26T01:35:31;7.90;;;3.00;;
70487;SDS011;57976;48.174;16.370;2024-02-26T01:37:36;7.90;;;3.40;;
70487;SDS011;57976;48.174;16.370;2024-02-26T01:39:41;8.00;;;3.60;;
70487;SDS011;57976;48.174;16.370;2024-02-26T01:41:45;9.70;;;3.50;;
70487;SDS011;57976;48.174;16.370;2024-02-26T01:43:50;9.20;;;3.90;;
70487;SDS011;57976;48.174;16.370;2024-02-26T01:45:54;9.10;;;4.10;;
70487;SDS011;57976;48.174;16.370;2024-02-26T01:47:59;9.20;;;3.40;;
70487;SDS011;57976;48.174;16.370;2024-02-26T01:50:05;8.30;;;3.60;;
70487;SDS011;57976;48.174;16.370;2024-02-26T01:52:10;9.30;;;3.60;;
70487;SDS011;57976;48.174;16.370;2024-02-26T01:54:16;8.00;;;3.20;;
70487;SDS011;57976;48.174;16.370;2024-02-26T01:56:21;10.50;;;3.80;;
70487;SDS011;57976;48.174;16.370;2024-02-26T01:58:27;9.00;;;3.80;;
70487;SDS011;57976;48.174;16.370;2024-02-26T02:00:33;8.70;;;3.60;;
70487;SDS011;57976;48.174;16.370;2024-02-26T02:02:41;9.20;;;3.50;;
70487;SDS011;57976;48.174;16.370;2024-02-26T02:04:45;10.90;;;3.90;;
70487;SDS011;57976;48.174;16.370;2024-02-26T02:06:50;9.20;;;3.50;;
70487;SDS011;57976;48.174;16.370;2024-02-26T02:08:59;9.10;;;3.40;;
70487;SDS011;57976;48.174;16.370;2024-02-26T02:11:04;8.40;;;3.00;;
70487;SDS011;57976;48.174;16.370;2024-02-26T02:13:09;9.00;;;3.50;;
70487;SDS011;57976;48.174;16.370;2024-02-26T02:15:14;9.00;;;3.30;;
70487;SDS011;57976;48.174;16.370;2024-02-26T02:17:18;8.00;;;3.40;;
70487;SDS011;57976;48.174;16.370;2024-02-26T02:19:23;10.20;;;3.50;;
70487;SDS011;57976;48.174;16.370;2024-02-26T02:21:28;8.90;;;3.40;;
70487;SDS011;57976;48.174;16.370;2024-02-26T02:23:32;8.00;;;3.00;;
70487;SDS011;57976;48.174;16.370;2024-02-26T02:25:37;8.50;;;3.20;;
70487;SDS011;57976;48.174;16.370;2024-02-26T02:27:42;7.20;;;3.20;;
70487;SDS011;57976;48.174;16.370;2024-02-26T02:29:47;8.40;;;3.40;;
70487;SDS011;57976;48.174;16.370;2024-02-26T02:31:52;8.50;;;3.30;;
70487;SDS011;57976;48.174;16.370;2024-02-26T02:33:57;7.70;;;2.90;;
70487;SDS011;57976;48.174;16.370;2024-02-26T02:36:02;8.10;;;3.20;;
70487;SDS011;57976;48.174;16.370;2024-02-26T02:38:08;8.90;;;3.00;;
70487;SDS011;57976;48.174;16.370;2024-02-26T02:40:12;7.60;;;3.20;;
70487;SDS011;57976;48.174;16.370;2024-02-26T02:42:17;8.40;;;3.30;;
70487;SDS011;57976;48.174;16.370;2024-02-26T02:44:23;9.20;;;3.40;;
70487;SDS011;57976;48.174;16.370;2024-02-26T02:46:28;8.20;;;2.60;;
70487;SDS011;57976;48.174;16.370;2024-02-26T02:48:32;7.00;;;2.40;;
70487;SDS011;57976;48.174;16.370;2024-02-26T02:50:37;6.60;;;2.20;;
70487;SDS011;57976;48.174;16.370;2024-02-26T02:52:42;8.20;;;2.20;;
70487;SDS011;57976;48.174;16.370;2024-02-26T02:54:47;6.50;;;2.30;;
70487;SDS011;57976;48.174;16.370;2024-02-26T02:56:51;6.20;;;2.10;;
70487;SDS011;57976;48.174;16.370;2024-02-26T02:58:56;7.20;;;2.10;;
70487;SDS011;57976;48.174;16.370;2024-02-26T03:01:00;6.50;;;2.20;;
70487;SDS011;57976;48.174;16.370;2024-02-26T03:03:05;7.30;;;2.10;;
70487;SDS011;57976;48.174;16.370;2024-02-26T03:05:10;8.10;;;2.20;;
70487;SDS011;57976;48.174;16.370;2024-02-26T03:07:15;6.30;;;2.00;;
70487;SDS011;57976;48.174;16.370;2024-02-26T03:09:20;7.20;;;2.40;;
70487;SDS011;57976;48.174;16.370;2024-02-26T03:11:25;7.20;;;2.20;;
70487;SDS011;57976;48.174;16.370;2024-02-26T03:13:29;7.20;;;2.20;;
70487;SDS011;57976;48.174;16.370;2024-02-26T03:15:34;7.80;;;2.40;;
70487;SDS011;57976;48.174;16.370;2024-02-26T03:17:39;6.80;;;2.30;;
70487;SDS011;57976;48.174;16.370;2024-02-26T03:19:44;6.90;;;2.00;;
70487;SDS011;57976;48.174;16.370;2024-02-26T03:21:49;6.90;;;2.30;;
70487;SDS011;57976;48.174;16.370;2024-02-26T03:23:54;7.10;;;2.30;;
70487;SDS011;57976;48.174;16.370;2024-02-26T03:25:59;6.80;;;2.40;;
70487;SDS011;57976;48.174;16.370;2024-02-26T03:28:04;8.10;;;2.40;;
70487;SDS011;57976;48.174;16.370;2024-02-26T03:30:09;6.00;;;2.10;;
70487;SDS011;57976;48.174;16.370;2024-02-26T03:32:14;6.30;;;2.20;;
70487;SDS011;57976;48.174;16.370;2024-02-26T03:34:19;6.20;;;2.20;;
70487;SDS011;57976;48.174;16.370;2024-02-26T03:36:23;6.60;;;2.20;;
70487;SDS011;57976;48.174;16.370;2024-02-26T03:38:28;7.50;;;2.50;;
70487;SDS011;57976;48.174;16.370;2024-02-26T03:40:33;6.20;;;2.20;;
70487;SDS011;57976;48.174;16.370;2024-02-26T03:42:38;6.10;;;2.20;;
70487;SDS011;57976;48.174;16.370;2024-02-26T03:44:43;6.30;;;2.60;;
70487;SDS011;57976;48.174;16.370;2024-02-26T03:46:47;6.80;;;2.50;;
70487;SDS011;57976;48.174;16.370;2024-02-26T03:48:52;6.50;;;2.10;;
70487;SDS011;57976;48.174;16.370;2024-02-26T03:50:57;7.30;;;2.30;;
70487;SDS011;57976;48.174;16.370;2024-02-26T03:53:01;7.20;;;2.20;;
70487;SDS011;57976;48.174;16.370;2024-02-26T03:55:06;7.10;;;2.70;;
70487;SDS011;57976;48.174;16.370;2024-02-26T03:57:11;6.90;;;2.30;;
70487;SDS011;57976;48.174;16.370;2024-02-26T03:59:16;7.00;;;2.20;;
70487;SDS011;57976;48.174;16.370;2024-02-26T04:01:21;6.70;;;2.40;;
70487;SDS011;57976;48.174;16.370;2024-02-26T04:03:26;7.30;;;2.70;;
70487;SDS011;57976;48.174;16.370;2024-02-26T04:05:30;6.70;;;2.30;;
70487;SDS011;57976;48.174;16.370;2024-02-26T04:07:36;8.00;;;2.30;;
70487;SDS011;57976;48.174;16.370;2024-02-26T04:09:41;7.10;;;2.30;;
70487;SDS011;57976;48.174;16.370;2024-02-26T04:11:46;7.70;;;2.50;;
70487;SDS011;57976;48.174;16.370;2024-02-26T04:13:50;6.50;;;2.20;;
70487;SDS011;57976;48.174;16.370;2024-02-26T04:15:55;7.00;;;2.50;;
70487;SDS011;57976;48.174;16.370;2024-02-26T04:18:00;6.80;;;2.40;;
70487;SDS011;57976;48.174;16.370;2024-02-26T04:20:05;7.70;;;2.70;;
70487;SDS011;57976;48.174;16.370;2024-02-26T04:22:15;6.70;;;2.40;;
70487;SDS011;57976;48.174;16.370;2024-02-26T04:24:20;7.80;;;2.50;;
70487;SDS011;57976;48.174;16.370;2024-02-26T04:26:25;7.00;;;2.70;;
70487;SDS011;57976;48.174;16.370;2024-02-26T04:28:29;7.40;;;2.70;;
70487;SDS011;57976;48.174;16.370;2024-02-26T04:30:34;8.50;;;2.70;;
70487;SDS011;57976;48.174;16.370;2024-02-26T04:32:39;8.10;;;2.60;;
70487;SDS011;57976;48.174;16.370;2024-02-26T04:34:44;6.10;;;2.40;;
70487;SDS011;57976;48.174;16.370;2024-02-26T04:36:48;8.00;;;2.40;;
70487;SDS011;57976;48.174;16.370;2024-02-26T04:38:53;7.50;;;2.70;;
70487;SDS011;57976;48.174;16.370;2024-02-26T04:40:58;7.40;;;2.40;;
70487;SDS011;57976;48.174;16.370;2024-02-26T04:43:02;7.70;;;2.90;;
70487;SDS011;57976;48.174;16.370;2024-02-26T04:45:08;7.90;;;2.60;;
70487;SDS011;57976;48.174;16.370;2024-02-26T04:47:13;9.00;;;2.70;;
70487;SDS011;57976;48.174;16.370;2024-02-26T04:49:17;8.20;;;2.80;;
70487;SDS011;57976;48.174;16.370;2024-02-26T04:51:22;6.90;;;2.50;;
70487;SDS011;57976;48.174;16.370;2024-02-26T04:53:27;8.70;;;3.10;;
70487;SDS011;57976;48.174;16.370;2024-02-26T04:55:32;8.50;;;3.00;;
70487;SDS011;57976;48.174;16.370;2024-02-26T04:57:36;7.70;;;2.90;;
70487;SDS011;57976;48.174;16.370;2024-02-26T04:59:41;8.30;;;3.00;;
70487;SDS011;57976;48.174;16.370;2024-02-26T05:01:46;10.10;;;2.90;;
70487;SDS011;57976;48.174;16.370;2024-02-26T05:03:50;8.00;;;2.90;;
70487;SDS011;57976;48.174;16.370;2024-02-26T05:05:55;8.50;;;3.20;;
70487;SDS011;57976;48.174;16.370;2024-02-26T05:08:00;7.70;;;3.20;;
70487;SDS011;57976;48.174;16.370;2024-02-26T05:10:05;8.40;;;3.20;;
70487;SDS011;57976;48.174;16.370;2024-02-26T05:12:10;8.00;;;3.50;;
70487;SDS011;57976;48.174;16.370;2024-02-26T05:14:15;9.10;;;3.80;;
70487;SDS011;57976;48.174;16.370;2024-02-26T05:16:20;9.30;;;3.80;;
70487;SDS011;57976;48.174;16.370;2024-02-26T05:18:25;8.90;;;3.90;;
70487;SDS011;57976;48.174;16.370;2024-02-26T05:20:30;8.60;;;3.70;;
70487;SDS011;57976;48.174;16.370;2024-02-26T05:22:34;8.50;;;3.70;;
70487;SDS011;57976;48.174;16.370;2024-02-26T05:24:39;10.10;;;3.90;;
70487;SDS011;57976;48.174;16.370;2024-02-26T05:26:44;9.50;;;4.00;;
70487;SDS011;57976;48.174;16.370;2024-02-26T05:28:49;10.00;;;4.10;;
70487;SDS011;57976;48.174;16.370;2024-02-26T05:30:54;8.50;;;3.70;;
70487;SDS011;57976;48.174;16.370;2024-02-26T05:32:59;10.90;;;3.90;;
70487;SDS011;57976;48.174;16.370;2024-02-26T05:35:04;9.90;;;3.80;;
70487;SDS011;57976;48.174;16.370;2024-02-26T05:37:10;9.00;;;3.80;;
70487;SDS011;57976;48.174;16.370;2024-02-26T05:39:14;9.60;;;3.70;;
70487;SDS011;57976;48.174;16.370;2024-02-26T05:41:22;8.90;;;3.90;;
70487;SDS011;57976;48.174;16.370;2024-02-26T05:43:30;9.90;;;4.10;;
70487;SDS011;57976;48.174;16.370;2024-02-26T05:45:34;8.40;;;3.50;;
70487;SDS011;57976;48.174;16.370;2024-02-26T05:47:39;10.30;;;4.00;;
70487;SDS011;57976;48.174;16.370;2024-02-26T05:49:44;11.40;;;4.00;;
70487;SDS011;57976;48.174;16.370;2024-02-26T05:51:48;10.10;;;4.30;;
70487;SDS011;57976;48.174;16.370;2024-02-26T05:53:53;9.00;;;3.90;;
70487;SDS011;57976;48.174;16.370;2024-02-26T05:55:58;8.60;;;3.80;;
70487;SDS011;57976;48.174;16.370;2024-02-26T05:58:03;9.40;;;3.90;;
70487;SDS011;57976;48.174;16.370;2024-02-26T06:00:08;9.50;;;3.80;;
70487;SDS011;57976;48.174;16.370;2024-02-26T06:02:17;8.80;;;3.50;;
70487;SDS011;57976;48.174;16.370;2024-02-26T06:04:22;9.50;;;3.50;;
70487;SDS011;57976;48.174;16.370;2024-02-26T06:06:27;9.10;;;3.60;;
70487;SDS011;57976;48.174;16.370;2024-02-26T06:08:31;8.80;;;3.80;;
70487;SDS011;57976;48.174;16.370;2024-02-26T06:10:36;8.90;;;3.60;;
70487;SDS011;57976;48.174;16.370;2024-02-26T06:12:41;8.50;;;3.50;;
70487;SDS011;57976;48.174;16.370;2024-02-26T06:14:46;8.20;;;3.50;;
70487;SDS011;57976;48.174;16.370;2024-02-26T06:16:54;9.50;;;3.50;;
70487;SDS011;57976;48.174;16.370;2024-02-26T06:18:59;9.70;;;3.80;;
70487;SDS011;57976;48.174;16.370;2024-02-26T06:21:08;9.60;;;3.90;;
70487;SDS011;57976;48.174;16.370;2024-02-26T06:23:13;8.50;;;3.70;;
70487;SDS011;57976;48.174;16.370;2024-02-26T06:25:18;9.70;;;3.90;;
70487;SDS011;57976;48.174;16.370;2024-02-26T06:27:23;7.60;;;3.30;;
70487;SDS011;57976;48.174;16.370;2024-02-26T06:29:28;9.60;;;3.40;;
70487;SDS011;57976;48.174;16.370;2024-02-26T06:31:32;7.70;;;3.50;;
70487;SDS011;57976;48.174;16.370;2024-02-26T06:33:37;9.30;;;3.50;;
70487;SDS011;57976;48.174;16.370;2024-02-26T06:35:42;8.70;;;3.40;;
70487;SDS011;57976;48.174;16.370;2024-02-26T06:37:47;9.80;;;3.40;;
70487;SDS011;57976;48.174;16.370;2024-02-26T06:39:53;8.70;;;3.40;;
70487;SDS011;57976;48.174;16.370;2024-02-26T06:41:57;8.20;;;3.30;;
70487;SDS011;57976;48.174;16.370;2024-02-26T06:44:02;8.90;;;3.30;;
70487;SDS011;57976;48.174;16.370;2024-02-26T06:46:07;8.00;;;3.10;;
70487;SDS011;57976;48.174;16.370;2024-02-26T06:48:12;7.50;;;3.30;;
70487;SDS011;57976;48.174;16.370;2024-02-26T06:50:17;8.30;;;3.50;;
70487;SDS011;57976;48.174;16.370;2024-02-26T06:52:21;7.60;;;3.40;;
70487;SDS011;57976;48.174;16.370;2024-02-26T06:54:26;9.10;;;3.40;;
70487;SDS011;57976;48.174;16.370;2024-02-26T06:56:31;10.50;;;3.70;;
70487;SDS011;57976;48.174;16.370;2024-02-26T06:58:35;9.60;;;3.30;;
70487;SDS011;57976;48.174;16.370;2024-02-26T07:00:40;8.10;;;3.40;;
70487;SDS011;57976;48.174;16.370;2024-02-26T07:02:45;8.20;;;3.60;;
70487;SDS011;57976;48.174;16.370;2024-02-26T07:04:49;8.40;;;3.30;;
70487;SDS011;57976;48.174;16.370;2024-02-26T07:06:54;8.00;;;3.40;;
70487;SDS011;57976;48.174;16.370;2024-02-26T07:08:59;8.90;;;3.40;;
70487;SDS011;57976;48.174;16.370;2024-02-26T07:11:04;8.00;;;3.90;;
70487;SDS011;57976;48.174;16.370;2024-02-26T07:13:11;8.50;;;3.50;;
70487;SDS011;57976;48.174;16.370;2024-02-26T07:15:16;8.30;;;3.40;;
70487;SDS011;57976;48.174;16.370;2024-02-26T07:17:21;10.30;;;4.10;;
70487;SDS011;57976;48.174;16.370;2024-02-26T07:19:25;9.70;;;3.90;;
70487;SDS011;57976;48.174;16.370;2024-02-26T07:21:33;9.20;;;3.70;;
70487;SDS011;57976;48.174;16.370;2024-02-26T07:23:38;8.40;;;3.80;;
70487;SDS011;57976;48.174;16.370;2024-02-26T07:25:44;8.10;;;3.40;;
70487;SDS011;57976;48.174;16.370;2024-02-26T07:27:50;13.10;;;3.80;;
70487;SDS011;57976;48.174;16.370;2024-02-26T07:29:55;8.50;;;3.80;;
70487;SDS011;57976;48.174;16.370;2024-02-26T07:32:00;9.00;;;3.70;;
70487;SDS011;57976;48.174;16.370;2024-02-26T07:34:04;9.40;;;3.90;;
70487;SDS011;57976;48.174;16.370;2024-02-26T07:36:09;8.80;;;4.00;;
70487;SDS011;57976;48.174;16.370;2024-02-26T07:38:14;9.10;;;3.50;;
70487;SDS011;57976;48.174;16.370;2024-02-26T07:40:33;8.00;;;3.70;;
70487;SDS011;57976;48.174;16.370;2024-02-26T07:42:44;7.60;;;3.40;;
70487;SDS011;57976;48.174;16.370;2024-02-26T07:44:49;9.90;;;3.70;;
70487;SDS011;57976;48.174;16.370;2024-02-26T07:46:54;9.80;;;3.80;;
70487;SDS011;57976;48.174;16.370;2024-02-26T07:48:58;8.50;;;3.60;;
70487;SDS011;57976;48.174;16.370;2024-02-26T07:51:03;9.70;;;3.80;;
70487;SDS011;57976;48.174;16.370;2024-02-26T07:53:08;8.70;;;3.80;;
70487;SDS011;57976;48.174;16.370;2024-02-26T07:55:13;10.20;;;3.70;;
70487;SDS011;57976;48.174;16.370;2024-02-26T07:57:18;11.60;;;3.90;;
70487;SDS011;57976;48.174;16.370;2024-02-26T07:59:22;9.70;;;4.00;;
70487;SDS011;57976;48.174;16.370;2024-02-26T08:01:27;7.60;;;3.50;;
70487;SDS011;57976;48.174;16.370;2024-02-26T08:03:32;8.70;;;4.00;;
70487;SDS011;57976;48.174;16.370;2024-02-26T08:05:36;8.90;;;3.60;;
70487;SDS011;57976;48.174;16.370;2024-02-26T08:07:41;8.10;;;3.40;;
70487;SDS011;57976;48.174;16.370;2024-02-26T08:09:46;8.20;;;3.90;;
70487;SDS011;57976;48.174;16.370;2024-02-26T08:11:51;8.70;;;3.60;;
70487;SDS011;57976;48.174;16.370;2024-02-26T08:13:55;8.80;;;3.80;;
70487;SDS011;57976;48.174;16.370;2024-02-26T08:16:00;10.00;;;4.00;;
70487;SDS011;57976;48.174;16.370;2024-02-26T08:18:06;8.60;;;3.60;;
70487;SDS011;57976;48.174;16.370;2024-02-26T08:20:11;8.00;;;3.80;;
70487;SDS011;57976;48.174;16.370;2024-02-26T08:22:16;8.80;;;3.90;;
70487;SDS011;57976;48.174;16.370;2024-02-26T08:24:21;7.70;;;3.60;;
70487;SDS011;57976;48.174;16.370;2024-02-26T08:26:25;8.00;;;3.50;;
70487;SDS011;57976;48.174;16.370;2024-02-26T08:28:30;8.20;;;3.40;;
70487;SDS011;57976;48.174;16.370;2024-02-26T08:30:35;8.40;;;3.40;;
70487;SDS011;57976;48.174;16.370;2024-02-26T08:32:40;7.20;;;3.20;;
70487;SDS011;57976;48.174;16.370;2024-02-26T08:34:45;7.10;;;3.30;;
70487;SDS011;57976;48.174;16.370;2024-02-26T08:36:50;7.90;;;3.10;;
70487;SDS011;57976;48.174;16.370;2024-02-26T08:38:55;7.80;;;3.20;;
70487;SDS011;57976;48.174;16.370;2024-02-26T08:41:01;8.20;;;3.00;;
70487;SDS011;57976;48.174;16.370;2024-02-26T08:43:06;7.40;;;3.00;;
70487;SDS011;57976;48.174;16.370;2024-02-26T08:45:11;6.50;;;2.60;;
70487;SDS011;57976;48.174;16.370;2024-02-26T08:47:19;8.30;;;3.00;;
70487;SDS011;57976;48.174;16.370;2024-02-26T08:49:24;7.00;;;3.20;;
70487;SDS011;57976;48.174;16.370;2024-02-26T08:51:29;7.90;;;3.00;;
70487;SDS011;57976;48.174;16.370;2024-02-26T08:53:35;10.90;;;3.70;;
70487;SDS011;57976;48.174;16.370;2024-02-26T08:55:45;8.50;;;3.60;;
70487;SDS011;57976;48.174;16.370;2024-02-26T08:57:50;10.10;;;4.60;;
70487;SDS011;57976;48.174;16.370;2024-02-26T08:59:55;8.90;;;3.90;;
70487;SDS011;57976;48.174;16.370;2024-02-26T09:02:00;9.10;;;3.30;;
70487;SDS011;57976;48.174;16.370;2024-02-26T09:04:06;9.00;;;3.00;;
70487;SDS011;57976;48.174;16.370;2024-02-26T09:06:11;6.70;;;2.60;;
70487;SDS011;57976;48.174;16.370;2024-02-26T09:08:17;7.80;;;2.90;;
70487;SDS011;57976;48.174;16.370;2024-02-26T09:10:22;9.50;;;3.10;;
70487;SDS011;57976;48.174;16.370;2024-02-26T09:12:27;7.30;;;2.80;;
70487;SDS011;57976;48.174;16.370;2024-02-26T09:14:33;7.30;;;3.00;;
70487;SDS011;57976;48.174;16.370;2024-02-26T09:16:38;7.70;;;2.40;;
70487;SDS011;57976;48.174;16.370;2024-02-26T09:18:45;6.70;;;2.80;;
70487;SDS011;57976;48.174;16.370;2024-02-26T09:20:51;6.00;;;2.30;;
70487;SDS011;57976;48.174;16.370;2024-02-26T09:22:55;7.30;;;2.50;;
70487;SDS011;57976;48.174;16.370;2024-02-26T09:25:00;6.30;;;2.20;;
70487;SDS011;57976;48.174;16.370;2024-02-26T09:27:05;7.00;;;2.40;;
70487;SDS011;57976;48.174;16.370;2024-02-26T09:29:11;6.50;;;2.10;;
70487;SDS011;57976;48.174;16.370;2024-02-26T09:31:17;7.30;;;1.80;;
70487;SDS011;57976;48.174;16.370;2024-02-26T09:33:22;6.00;;;1.90;;
70487;SDS011;57976;48.174;16.370;2024-02-26T09:35:27;6.00;;;1.90;;
70487;SDS011;57976;48.174;16.370;2024-02-26T09:37:32;5.60;;;1.60;;
70487;SDS011;57976;48.174;16.370;2024-02-26T09:39:37;5.70;;;1.90;;
70487;SDS011;57976;48.174;16.370;2024-02-26T09:41:42;5.10;;;1.80;;
70487;SDS011;57976;48.174;16.370;2024-02-26T09:43:49;6.20;;;1.80;;
70487;SDS011;57976;48.174;16.370;2024-02-26T09:45:58;6.30;;;1.80;;
70487;SDS011;57976;48.174;16.370;2024-02-26T09:48:07;6.10;;;1.60;;
70487;SDS011;57976;48.174;16.370;2024-02-26T09:50:13;5.50;;;1.60;;
70487;SDS011;57976;48.174;16.370;2024-02-26T09:52:27;4.10;;;1.40;;
70487;SDS011;57976;48.174;16.370;2024-02-26T09:54:40;5.20;;;1.50;;
70487;SDS011;57976;48.174;16.370;2024-02-26T09:57:05;4.80;;;1.40;;
70487;SDS011;57976;48.174;16.370;2024-02-26T09:59:33;5.60;;;1.60;;
70487;SDS011;57976;48.174;16.370;2024-02-26T10:02:04;5.30;;;1.50;;
70487;SDS011;57976;48.174;16.370;2024-02-26T10:04:20;5.70;;;1.50;;
70487;SDS011;57976;48.174;16.370;2024-02-26T10:06:33;4.60;;;1.60;;
70487;SDS011;57976;48.174;16.370;2024-02-26T10:08:39;6.80;;;1.60;;
70487;SDS011;57976;48.174;16.370;2024-02-26T10:10:46;5.50;;;1.70;;
70487;SDS011;57976;48.174;16.370;2024-02-26T10:13:15;5.70;;;1.50;;
70487;SDS011;57976;48.174;16.370;2024-02-26T10:15:20;6.60;;;1.70;;
70487;SDS011;57976;48.174;16.370;2024-02-26T10:17:25;5.30;;;1.80;;
70487;SDS011;57976;48.174;16.370;2024-02-26T10:19:40;5.10;;;1.70;;
70487;SDS011;57976;48.174;16.370;2024-02-26T10:21:45;5.80;;;2.00;;
70487;SDS011;57976;48.174;16.370;2024-02-26T10:24:26;5.60;;;1.80;;
70487;SDS011;57976;48.174;16.370;2024-02-26T10:26:37;5.00;;;1.50;;
70487;SDS011;57976;48.174;16.370;2024-02-26T10:28:51;5.40;;;1.50;;
70487;SDS011;57976;48.174;16.370;2024-02-26T10:31:16;5.50;;;1.50;;
70487;SDS011;57976;48.174;16.370;2024-02-26T10:33:45;6.30;;;1.90;;
70487;SDS011;57976;48.174;16.370;2024-02-26T10:36:06;5.40;;;1.70;;
70487;SDS011;57976;48.174;16.370;2024-02-26T10:38:22;6.50;;;1.70;;
70487;SDS011;57976;48.174;16.370;2024-02-26T10:40:33;5.90;;;1.80;;
70487;SDS011;57976;48.174;16.370;2024-02-26T10:42:50;4.60;;;1.50;;
70487;SDS011;57976;48.174;16.370;2024-02-26T10:47:50;5.50;;;1.70;;
70487;SDS011;57976;48.174;16.370;2024-02-26T10:50:16;5.50;;;1.70;;
70487;SDS011;57976;48.174;16.370;2024-02-26T10:52:35;4.80;;;1.80;;
70487;SDS011;57976;48.174;16.370;2024-02-26T10:54:54;4.50;;;1.70;;
70487;SDS011;57976;48.174;16.370;2024-02-26T10:57:16;5.60;;;2.10;;
70487;SDS011;57976;48.174;16.370;2024-02-26T10:59:35;6.10;;;1.80;;
70487;SDS011;57976;48.174;16.370;2024-02-26T11:01:53;5.10;;;1.70;;
70487;SDS011;57976;48.174;16.370;2024-02-26T11:04:13;5.80;;;1.90;;
70487;SDS011;57976;48.174;16.370;2024-02-26T11:06:44;6.00;;;1.70;;
70487;SDS011;57976;48.174;16.370;2024-02-26T11:09:05;5.60;;;1.80;;
70487;SDS011;57976;48.174;16.370;2024-02-26T11:11:50;5.40;;;1.80;;
70487;SDS011;57976;48.174;16.370;2024-02-26T11:14:06;6.30;;;1.80;;
70487;SDS011;57976;48.174;16.370;2024-02-26T11:16:49;5.00;;;1.60;;
70487;SDS011;57976;48.174;16.370;2024-02-26T11:19:06;6.30;;;1.70;;
70487;SDS011;57976;48.174;16.370;2024-02-26T11:21:27;4.80;;;1.50;;
70487;SDS011;57976;48.174;16.370;2024-02-26T11:23:41;4.90;;;1.40;;
70487;SDS011;57976;48.174;16.370;2024-02-26T11:25:54;4.50;;;1.30;;
70487;SDS011;57976;48.174;16.370;2024-02-26T11:28:20;6.60;;;1.40;;
70487;SDS011;57976;48.174;16.370;2024-02-26T11:30:33;5.40;;;1.40;;
70487;SDS011;57976;48.174;16.370;2024-02-26T11:32:47;4.00;;;1.30;;
70487;SDS011;57976;48.174;16.370;2024-02-26T11:35:09;4.80;;;1.20;;
70487;SDS011;57976;48.174;16.370;2024-02-26T11:37:28;3.60;;;0.80;;
70487;SDS011;57976;48.174;16.370;2024-02-26T11:39:46;5.10;;;1.20;;
70487;SDS011;57976;48.174;16.370;2024-02-26T11:42:04;3.90;;;1.10;;
70487;SDS011;57976;48.174;16.370;2024-02-26T11:44:30;4.20;;;1.00;;
70487;SDS011;57976;48.174;16.370;2024-02-26T11:46:39;3.80;;;1.00;;
70487;SDS011;57976;48.174;16.370;2024-02-26T11:48:45;3.80;;;1.00;;
70487;SDS011;57976;48.174;16.370;2024-02-26T11:50:51;3.30;;;0.90;;
70487;SDS011;57976;48.174;16.370;2024-02-26T11:55:32;4.90;;;1.10;;
70487;SDS011;57976;48.174;16.370;2024-02-26T11:57:39;4.30;;;1.00;;
70487;SDS011;57976;48.174;16.370;2024-02-26T11:59:44;6.10;;;1.10;;
70487;SDS011;57976;48.174;16.370;2024-02-26T12:01:48;4.00;;;1.20;;
70487;SDS011;57976;48.174;16.370;2024-02-26T12:03:55;4.60;;;1.30;;
70487;SDS011;57976;48.174;16.370;2024-02-26T12:06:01;4.50;;;1.40;;
70487;SDS011;57976;48.174;16.370;2024-02-26T12:08:07;3.70;;;1.20;;
70487;SDS011;57976;48.174;16.370;2024-02-26T12:10:16;3.30;;;0.90;;
70487;SDS011;57976;48.174;16.370;2024-02-26T12:12:26;4.30;;;1.10;;
70487;SDS011;57976;48.174;16.370;2024-02-26T12:14:32;5.20;;;0.90;;
70487;SDS011;57976;48.174;16.370;2024-02-26T12:16:39;4.10;;;1.20;;
70487;SDS011;57976;48.174;16.370;2024-02-26T12:18:45;4.70;;;1.10;;
70487;SDS011;57976;48.174;16.370;2024-02-26T12:20:58;4.40;;;1.00;;
70487;SDS011;57976;48.174;16.370;2024-02-26T12:23:04;4.10;;;1.00;;
70487;SDS011;57976;48.174;16.370;2024-02-26T12:25:10;4.40;;;1.00;;
70487;SDS011;57976;48.174;16.370;2024-02-26T12:27:15;4.60;;;0.90;;
70487;SDS011;57976;48.174;16.370;2024-02-26T12:29:20;3.40;;;0.80;;
70487;SDS011;57976;48.174;16.370;2024-02-26T12:31:24;3.60;;;1.00;;
70487;SDS011;57976;48.174;16.370;2024-02-26T12:33:30;4.30;;;1.10;;
70487;SDS011;57976;48.174;16.370;2024-02-26T12:35:35;3.40;;;1.10;;
70487;SDS011;57976;48.174;16.370;2024-02-26T12:37:40;3.60;;;1.10;;
70487;SDS011;57976;48.174;16.370;2024-02-26T12:39:46;6.50;;;1.30;;